createdAt,value
2023-03-29T00:00:32.489Z,1016.50
2023-03-29T00:01:35.689Z,1016.49
2023-03-29T00:02:32.528Z,1016.46
2023-03-29T00:03:32.538Z,1016.47
2023-03-29T00:04:32.471Z,1016.49
2023-03-29T00:05:32.464Z,1016.51
2023-03-29T00:06:32.423Z,1016.52
2023-03-29T00:07:32.434Z,1016.51
2023-03-29T00:08:32.436Z,1016.51
2023-03-29T00:09:32.401Z,1016.50
2023-03-29T00:10:32.473Z,1016.49
2023-03-29T00:11:32.415Z,1016.47
2023-03-29T00:12:32.365Z,1016.44
2023-03-29T00:13:32.379Z,1016.42
2023-03-29T00:14:32.338Z,1016.41
2023-03-29T00:15:32.338Z,1016.42
2023-03-29T00:16:32.398Z,1016.43
2023-03-29T00:17:32.399Z,1016.43
2023-03-29T00:18:32.308Z,1016.43
2023-03-29T00:19:32.313Z,1016.43
2023-03-29T00:20:32.274Z,1016.42
2023-03-29T00:21:32.275Z,1016.42
2023-03-29T00:22:32.280Z,1016.41
2023-03-29T00:23:32.245Z,1016.40
2023-03-29T00:24:32.240Z,1016.38
2023-03-29T00:25:32.265Z,1016.37
2023-03-29T00:26:32.216Z,1016.37
2023-03-29T00:27:32.517Z,1016.38
2023-03-29T00:28:32.209Z,1016.38
2023-03-29T00:29:32.259Z,1016.35
2023-03-29T00:30:32.180Z,1016.33
2023-03-29T00:31:32.268Z,1016.32
2023-03-29T00:32:32.185Z,1016.30
2023-03-29T00:33:32.156Z,1016.28
2023-03-29T00:34:32.138Z,1016.30
2023-03-29T00:35:32.151Z,1016.31
2023-03-29T00:36:32.138Z,1016.31
2023-03-29T00:37:32.131Z,1016.31
2023-03-29T00:38:32.135Z,1016.31
2023-03-29T00:39:32.091Z,1016.31
2023-03-29T00:40:32.063Z,1016.31
2023-03-29T00:41:32.073Z,1016.29
2023-03-29T00:42:32.068Z,1016.29
2023-03-29T00:43:32.043Z,1016.27
2023-03-29T00:44:32.039Z,1016.27
2023-03-29T00:45:32.024Z,1016.26
2023-03-29T00:46:32.118Z,1016.25
2023-03-29T00:47:32.059Z,1016.23
2023-03-29T00:48:31.991Z,1016.23
2023-03-29T00:49:31.983Z,1016.20
2023-03-29T00:50:31.964Z,1016.19
2023-03-29T00:51:31.955Z,1016.17
2023-03-29T00:52:31.969Z,1016.16
2023-03-29T00:53:31.955Z,1016.15
2023-03-29T00:54:32.014Z,1016.14
2023-03-29T00:55:31.912Z,1016.13
2023-03-29T00:56:31.904Z,1016.12
2023-03-29T00:57:31.910Z,1016.10
2023-03-29T00:58:31.899Z,1016.08
2023-03-29T00:59:31.885Z,1016.07
2023-03-29T01:00:31.894Z,1016.05
2023-03-29T01:01:31.940Z,1016.04
2023-03-29T01:02:31.971Z,1016.02
2023-03-29T01:03:31.963Z,1016.02
2023-03-29T01:04:31.818Z,1016.01
2023-03-29T01:05:31.820Z,1015.99
2023-03-29T01:06:31.861Z,1015.99
2023-03-29T01:07:31.798Z,1015.99
2023-03-29T01:08:31.791Z,1015.97
2023-03-29T01:09:31.782Z,1015.96
2023-03-29T01:10:31.751Z,1015.94
2023-03-29T01:11:31.753Z,1015.91
2023-03-29T01:12:31.747Z,1015.88
2023-03-29T01:13:31.758Z,1015.87
2023-03-29T01:14:31.712Z,1015.85
2023-03-29T01:15:31.707Z,1015.85
2023-03-29T01:16:31.755Z,1015.84
2023-03-29T01:17:31.860Z,1015.82
2023-03-29T01:18:31.698Z,1015.80
2023-03-29T01:19:31.671Z,1015.77
2023-03-29T01:20:31.687Z,1015.76
2023-03-29T01:21:31.646Z,1015.77
2023-03-29T01:22:31.630Z,1015.75
2023-03-29T01:23:31.666Z,1015.73
2023-03-29T01:24:31.709Z,1015.70
2023-03-29T01:25:31.629Z,1015.69
2023-03-29T01:26:31.585Z,1015.67
2023-03-29T01:27:31.590Z,1015.65
2023-03-29T01:28:31.605Z,1015.64
2023-03-29T01:29:31.606Z,1015.62
2023-03-29T01:30:31.561Z,1015.62
2023-03-29T01:31:31.554Z,1015.60
2023-03-29T01:32:31.539Z,1015.59
2023-03-29T01:33:31.539Z,1015.59
2023-03-29T01:34:31.501Z,1015.57
2023-03-29T01:35:31.519Z,1015.54
2023-03-29T01:36:31.481Z,1015.52
2023-03-29T01:37:31.480Z,1015.51
2023-03-29T01:38:31.475Z,1015.49
2023-03-29T01:39:31.564Z,1015.46
2023-03-29T01:40:31.530Z,1015.43
2023-03-29T01:41:31.456Z,1015.40
2023-03-29T01:42:31.443Z,1015.36
2023-03-29T01:43:31.432Z,1015.35
2023-03-29T01:44:31.404Z,1015.33
2023-03-29T01:45:31.422Z,1015.29
2023-03-29T01:46:31.498Z,1015.28
2023-03-29T01:47:31.458Z,1015.26
2023-03-29T01:48:31.375Z,1015.26
2023-03-29T01:49:31.345Z,1015.24
2023-03-29T01:50:31.356Z,1015.24
2023-03-29T01:51:31.362Z,1015.23
2023-03-29T01:52:31.318Z,1015.21
2023-03-29T01:53:31.325Z,1015.19
2023-03-29T01:54:31.297Z,1015.18
2023-03-29T01:55:31.286Z,1015.16
2023-03-29T01:56:31.290Z,1015.14
2023-03-29T01:57:31.266Z,1015.12
2023-03-29T01:58:31.274Z,1015.11
2023-03-29T01:59:31.246Z,1015.08
2023-03-29T02:00:31.240Z,1015.08
2023-03-29T02:01:31.311Z,1015.05
2023-03-29T02:02:31.243Z,1015.04
2023-03-29T02:03:31.321Z,1015.03
2023-03-29T02:04:31.179Z,1015.00
2023-03-29T02:05:31.179Z,1014.98
2023-03-29T02:06:31.168Z,1014.97
2023-03-29T02:07:31.158Z,1014.95
2023-03-29T02:08:31.165Z,1014.95
2023-03-29T02:09:31.126Z,1014.94
2023-03-29T02:10:31.132Z,1014.93
2023-03-29T02:11:31.129Z,1014.94
2023-03-29T02:12:31.096Z,1014.94
2023-03-29T02:13:31.091Z,1014.93
2023-03-29T02:14:31.073Z,1014.92
2023-03-29T02:15:31.080Z,1014.92
2023-03-29T02:16:31.070Z,1014.92
2023-03-29T02:17:31.091Z,1014.92
2023-03-29T02:18:31.040Z,1014.92
2023-03-29T02:19:31.058Z,1014.92
2023-03-29T02:20:31.025Z,1014.90
2023-03-29T02:21:31.007Z,1014.89
2023-03-29T02:22:30.990Z,1014.88
2023-03-29T02:23:31.013Z,1014.88
2023-03-29T02:24:30.968Z,1014.87
2023-03-29T02:25:30.966Z,1014.86
2023-03-29T02:26:30.940Z,1014.83
2023-03-29T02:27:30.947Z,1014.81
2023-03-29T02:28:30.938Z,1014.80
2023-03-29T02:29:30.916Z,1014.78
2023-03-29T02:30:30.900Z,1014.77
2023-03-29T02:31:30.937Z,1014.75
2023-03-29T02:32:30.922Z,1014.74
2023-03-29T02:33:30.891Z,1014.73
2023-03-29T02:34:30.882Z,1014.71
2023-03-29T02:35:30.904Z,1014.70
2023-03-29T02:36:30.844Z,1014.69
2023-03-29T02:37:30.835Z,1014.66
2023-03-29T02:38:30.824Z,1014.65
2023-03-29T02:39:30.805Z,1014.63
2023-03-29T02:40:30.818Z,1014.61
2023-03-29T02:41:30.845Z,1014.60
2023-03-29T02:42:30.780Z,1014.58
2023-03-29T02:43:30.764Z,1014.57
2023-03-29T02:44:30.754Z,1014.56
2023-03-29T02:45:30.746Z,1014.54
2023-03-29T02:46:30.811Z,1014.53
2023-03-29T02:47:30.750Z,1014.52
2023-03-29T02:48:30.727Z,1014.51
2023-03-29T02:49:30.716Z,1014.49
2023-03-29T02:50:30.695Z,1014.49
2023-03-29T02:51:30.689Z,1014.48
2023-03-29T02:52:30.673Z,1014.47
2023-03-29T02:53:30.704Z,1014.45
2023-03-29T02:54:30.654Z,1014.44
2023-03-29T02:55:30.646Z,1014.43
2023-03-29T02:56:30.643Z,1014.44
2023-03-29T02:57:30.621Z,1014.44
2023-03-29T02:58:30.630Z,1014.42
2023-03-29T02:59:30.600Z,1014.41
2023-03-29T03:00:30.591Z,1014.40
2023-03-29T03:01:36.643Z,1014.39
2023-03-29T03:02:30.644Z,1014.38
2023-03-29T03:03:31.419Z,1014.38
2023-03-29T03:04:31.284Z,1014.38
2023-03-29T03:05:30.543Z,1014.36
2023-03-29T03:06:30.517Z,1014.35
2023-03-29T03:07:30.517Z,1014.34
2023-03-29T03:08:30.512Z,1014.34
2023-03-29T03:09:30.495Z,1014.34
2023-03-29T03:10:30.474Z,1014.34
2023-03-29T03:11:30.474Z,1014.34
2023-03-29T03:12:30.461Z,1014.34
2023-03-29T03:13:30.464Z,1014.33
2023-03-29T03:14:30.448Z,1014.31
2023-03-29T03:15:30.437Z,1014.29
2023-03-29T03:16:30.471Z,1014.27
2023-03-29T03:17:30.415Z,1014.26
2023-03-29T03:18:30.437Z,1014.25
2023-03-29T03:19:30.397Z,1014.22
2023-03-29T03:20:30.368Z,1014.20
2023-03-29T03:21:30.379Z,1014.18
2023-03-29T03:22:30.348Z,1014.16
2023-03-29T03:23:30.405Z,1014.15
2023-03-29T03:24:30.332Z,1014.14
2023-03-29T03:25:30.328Z,1014.13
2023-03-29T03:26:30.370Z,1014.12
2023-03-29T03:27:30.298Z,1014.11
2023-03-29T03:28:30.308Z,1014.11
2023-03-29T03:29:30.277Z,1014.08
2023-03-29T03:30:30.266Z,1014.06
2023-03-29T03:31:30.286Z,1014.04
2023-03-29T03:32:30.300Z,1014.03
2023-03-29T03:33:30.258Z,1014.03
2023-03-29T03:34:30.228Z,1014.04
2023-03-29T03:35:30.225Z,1014.05
2023-03-29T03:36:30.203Z,1014.06
2023-03-29T03:37:30.184Z,1014.06
2023-03-29T03:38:30.226Z,1014.08
2023-03-29T03:39:30.164Z,1014.07
2023-03-29T03:40:30.197Z,1014.07
2023-03-29T03:41:30.156Z,1014.05
2023-03-29T03:42:30.174Z,1014.06
2023-03-29T03:43:30.119Z,1014.06
2023-03-29T03:44:30.122Z,1014.04
2023-03-29T03:45:30.151Z,1014.03
2023-03-29T03:46:30.124Z,1014.02
2023-03-29T03:47:30.117Z,1013.99
2023-03-29T03:48:30.109Z,1014.00
2023-03-29T03:49:30.062Z,1013.97
2023-03-29T03:50:30.060Z,1013.99
2023-03-29T03:51:30.083Z,1014.00
2023-03-29T03:52:30.046Z,1014.00
2023-03-29T03:53:30.039Z,1014.00
2023-03-29T03:54:30.013Z,1014.01
2023-03-29T03:55:29.997Z,1013.99
2023-03-29T03:56:30.013Z,1013.99
2023-03-29T03:57:29.974Z,1013.98
2023-03-29T03:58:29.970Z,1013.97
2023-03-29T03:59:29.988Z,1013.95
2023-03-29T04:00:29.951Z,1013.93
2023-03-29T04:01:29.985Z,1013.92
2023-03-29T04:02:29.967Z,1013.94
2023-03-29T04:03:30.034Z,1013.93
2023-03-29T04:04:29.992Z,1013.93
2023-03-29T04:05:29.889Z,1013.91
2023-03-29T04:06:29.891Z,1013.92
2023-03-29T04:07:29.871Z,1013.91
2023-03-29T04:08:29.888Z,1013.91
2023-03-29T04:09:29.867Z,1013.90
2023-03-29T04:10:29.848Z,1013.90
2023-03-29T04:11:29.838Z,1013.89
2023-03-29T04:12:29.906Z,1013.90
2023-03-29T04:13:29.846Z,1013.91
2023-03-29T04:14:29.846Z,1013.92
2023-03-29T04:15:29.848Z,1013.93
2023-03-29T04:16:29.899Z,1013.93
2023-03-29T04:17:29.845Z,1013.94
2023-03-29T04:18:29.808Z,1013.94
2023-03-29T04:19:29.726Z,1013.94
2023-03-29T04:20:29.733Z,1013.92
2023-03-29T04:21:29.723Z,1013.92
2023-03-29T04:22:29.723Z,1013.92
2023-03-29T04:23:29.654Z,1013.90
2023-03-29T04:24:29.761Z,1013.91
2023-03-29T04:25:29.682Z,1013.91
2023-03-29T04:26:29.615Z,1013.92
2023-03-29T04:27:29.603Z,1013.92
2023-03-29T04:28:29.604Z,1013.90
2023-03-29T04:29:29.627Z,1013.88
2023-03-29T04:30:29.585Z,1013.86
2023-03-29T04:31:31.012Z,1013.87
2023-03-29T04:32:29.574Z,1013.87
2023-03-29T04:33:29.577Z,1013.85
2023-03-29T04:34:29.548Z,1013.81
2023-03-29T04:35:29.518Z,1013.80
2023-03-29T04:36:29.535Z,1013.83
2023-03-29T04:37:29.497Z,1013.80
2023-03-29T04:38:29.510Z,1013.79
2023-03-29T04:39:29.578Z,1013.79
2023-03-29T04:40:29.514Z,1013.79
2023-03-29T04:41:29.503Z,1013.78
2023-03-29T04:42:29.480Z,1013.78
2023-03-29T04:43:29.473Z,1013.79
2023-03-29T04:44:29.454Z,1013.80
2023-03-29T04:45:29.487Z,1013.78
2023-03-29T04:46:30.510Z,1013.77
2023-03-29T04:47:29.639Z,1013.78
2023-03-29T04:48:29.397Z,1013.77
2023-03-29T04:49:29.423Z,1013.75
2023-03-29T04:50:29.508Z,1013.74
2023-03-29T04:51:29.364Z,1013.73
2023-03-29T04:52:29.364Z,1013.74
2023-03-29T04:53:29.389Z,1013.73
2023-03-29T04:54:29.354Z,1013.71
2023-03-29T04:55:29.329Z,1013.72
2023-03-29T04:56:29.331Z,1013.72
2023-03-29T04:57:29.345Z,1013.73
2023-03-29T04:58:32.175Z,1013.74
2023-03-29T04:59:29.310Z,1013.74
2023-03-29T05:00:29.311Z,1013.74
2023-03-29T05:01:29.305Z,1013.73
2023-03-29T05:02:29.289Z,1013.73
2023-03-29T05:03:29.269Z,1013.71
2023-03-29T05:04:29.478Z,1013.70
2023-03-29T05:05:29.237Z,1013.67
2023-03-29T05:06:29.214Z,1013.68
2023-03-29T05:07:29.200Z,1013.67
2023-03-29T05:08:29.188Z,1013.67
2023-03-29T05:09:29.196Z,1013.66
2023-03-29T05:10:29.177Z,1013.65
2023-03-29T05:11:29.169Z,1013.63
2023-03-29T05:12:29.170Z,1013.61
2023-03-29T05:13:29.626Z,1013.60
2023-03-29T05:14:29.160Z,1013.58
2023-03-29T05:15:29.130Z,1013.56
2023-03-29T05:16:29.191Z,1013.55
2023-03-29T05:17:29.445Z,1013.54
2023-03-29T05:18:29.170Z,1013.53
2023-03-29T05:19:29.095Z,1013.53
2023-03-29T05:20:29.574Z,1013.53
2023-03-29T05:21:29.180Z,1013.53
2023-03-29T05:22:29.426Z,1013.53
2023-03-29T05:23:29.027Z,1013.52
2023-03-29T05:24:29.055Z,1013.51
2023-03-29T05:25:29.008Z,1013.49
2023-03-29T05:26:29.014Z,1013.48
2023-03-29T05:27:29.994Z,1013.47
2023-03-29T05:28:29.027Z,1013.47
2023-03-29T05:29:29.006Z,1013.47
2023-03-29T05:30:28.956Z,1013.46
2023-03-29T05:31:28.986Z,1013.46
2023-03-29T05:32:28.997Z,1013.47
2023-03-29T05:33:28.970Z,1013.47
2023-03-29T05:34:28.927Z,1013.46
2023-03-29T05:35:29.001Z,1013.46
2023-03-29T05:36:28.892Z,1013.45
2023-03-29T05:37:28.870Z,1013.44
2023-03-29T05:38:28.884Z,1013.43
2023-03-29T05:39:28.878Z,1013.42
2023-03-29T05:40:28.847Z,1013.41
2023-03-29T05:41:28.884Z,1013.41
2023-03-29T05:42:28.823Z,1013.39
2023-03-29T05:43:28.810Z,1013.38
2023-03-29T05:44:28.833Z,1013.37
2023-03-29T05:45:28.829Z,1013.37
2023-03-29T05:46:28.810Z,1013.36
2023-03-29T05:47:28.834Z,1013.34
2023-03-29T05:48:28.850Z,1013.33
2023-03-29T05:49:28.757Z,1013.36
2023-03-29T05:50:28.750Z,1013.36
2023-03-29T05:51:28.745Z,1013.35
2023-03-29T05:52:28.749Z,1013.35
2023-03-29T05:53:28.722Z,1013.35
2023-03-29T05:54:28.713Z,1013.36
2023-03-29T05:55:28.698Z,1013.38
2023-03-29T05:56:28.766Z,1013.38
2023-03-29T05:57:28.722Z,1013.36
2023-03-29T05:58:28.672Z,1013.37
2023-03-29T05:59:28.676Z,1013.36
2023-03-29T06:00:28.658Z,1013.36
2023-03-29T06:01:28.823Z,1013.36
2023-03-29T06:02:30.387Z,1013.34
2023-03-29T06:03:29.120Z,1013.35
2023-03-29T06:04:29.010Z,1013.37
2023-03-29T06:05:28.584Z,1013.37
2023-03-29T06:06:28.582Z,1013.34
2023-03-29T06:07:28.586Z,1013.34
2023-03-29T06:08:28.591Z,1013.35
2023-03-29T06:09:28.557Z,1013.34
2023-03-29T06:10:28.860Z,1013.31
2023-03-29T06:11:28.513Z,1013.30
2023-03-29T06:12:28.504Z,1013.31
2023-03-29T06:13:28.516Z,1013.35
2023-03-29T06:14:28.498Z,1013.36
2023-03-29T06:15:28.514Z,1013.36
2023-03-29T06:16:28.507Z,1013.34
2023-03-29T06:17:28.520Z,1013.35
2023-03-29T06:18:28.480Z,1013.36
2023-03-29T06:19:28.457Z,1013.36
2023-03-29T06:20:28.427Z,1013.37
2023-03-29T06:21:28.443Z,1013.39
2023-03-29T06:22:28.435Z,1013.38
2023-03-29T06:23:28.395Z,1013.38
2023-03-29T06:24:28.381Z,1013.37
2023-03-29T06:25:28.365Z,1013.35
2023-03-29T06:26:28.418Z,1013.34
2023-03-29T06:27:28.361Z,1013.34
2023-03-29T06:28:28.375Z,1013.31
2023-03-29T06:29:28.351Z,1013.30
2023-03-29T06:30:28.350Z,1013.28
2023-03-29T06:31:28.380Z,1013.28
2023-03-29T06:32:28.550Z,1013.30
2023-03-29T06:33:28.311Z,1013.29
2023-03-29T06:34:28.308Z,1013.28
2023-03-29T06:35:28.356Z,1013.28
2023-03-29T06:36:28.264Z,1013.26
2023-03-29T06:37:28.342Z,1013.26
2023-03-29T06:38:28.261Z,1013.25
2023-03-29T06:39:28.258Z,1013.26
2023-03-29T06:40:28.248Z,1013.23
2023-03-29T06:41:28.223Z,1013.23
2023-03-29T06:42:28.195Z,1013.23
2023-03-29T06:43:28.188Z,1013.24
2023-03-29T06:44:28.209Z,1013.22
2023-03-29T06:45:29.427Z,1013.23
2023-03-29T06:46:28.219Z,1013.24
2023-03-29T06:47:28.166Z,1013.22
2023-03-29T06:48:28.145Z,1013.22
2023-03-29T06:49:28.131Z,1013.20
2023-03-29T06:50:28.667Z,1013.20
2023-03-29T06:51:29.053Z,1013.19
2023-03-29T06:52:28.688Z,1013.18
2023-03-29T06:53:28.112Z,1013.18
2023-03-29T06:54:28.091Z,1013.19
2023-03-29T06:55:28.062Z,1013.18
2023-03-29T06:56:28.048Z,1013.17
2023-03-29T06:57:28.083Z,1013.16
2023-03-29T06:58:28.021Z,1013.16
2023-03-29T06:59:28.021Z,1013.13
2023-03-29T07:00:28.304Z,1013.11
2023-03-29T07:01:28.078Z,1013.08
2023-03-29T07:02:28.006Z,1013.09
2023-03-29T07:03:27.961Z,1013.07
2023-03-29T07:04:28.037Z,1013.08
2023-03-29T07:05:27.941Z,1013.08
2023-03-29T07:06:27.960Z,1013.11
2023-03-29T07:07:27.931Z,1013.11
2023-03-29T07:08:27.960Z,1013.10
2023-03-29T07:09:27.909Z,1013.09
2023-03-29T07:10:27.886Z,1013.10
2023-03-29T07:11:27.933Z,1013.10
2023-03-29T07:12:27.865Z,1013.09
2023-03-29T07:13:27.866Z,1013.09
2023-03-29T07:14:27.898Z,1013.07
2023-03-29T07:15:27.827Z,1013.07
2023-03-29T07:16:27.866Z,1013.08
2023-03-29T07:17:27.859Z,1013.09
2023-03-29T07:18:27.802Z,1013.14
2023-03-29T07:19:27.818Z,1013.12
2023-03-29T07:20:27.779Z,1013.13
2023-03-29T07:21:27.811Z,1013.13
2023-03-29T07:22:27.762Z,1013.14
2023-03-29T07:23:27.740Z,1013.14
2023-03-29T07:24:27.755Z,1013.12
2023-03-29T07:25:27.752Z,1013.12
2023-03-29T07:26:28.806Z,1013.11
2023-03-29T07:27:27.752Z,1013.10
2023-03-29T07:28:27.688Z,1013.10
2023-03-29T07:29:28.326Z,1013.09
2023-03-29T07:30:29.613Z,1013.09
2023-03-29T07:31:27.652Z,1013.08
2023-03-29T07:32:27.684Z,1013.06
2023-03-29T07:33:27.768Z,1013.05
2023-03-29T07:34:27.629Z,1013.05
2023-03-29T07:35:27.640Z,1013.06
2023-03-29T07:36:27.622Z,1013.06
2023-03-29T07:37:27.588Z,1013.06
2023-03-29T07:38:27.585Z,1013.05
2023-03-29T07:39:27.564Z,1013.05
2023-03-29T07:40:27.609Z,1013.05
2023-03-29T07:41:27.608Z,1013.05
2023-03-29T07:42:27.556Z,1013.05
2023-03-29T07:43:27.527Z,1013.06
2023-03-29T07:44:27.513Z,1013.07
2023-03-29T07:45:28.384Z,1013.04
2023-03-29T07:46:27.534Z,1013.05
2023-03-29T07:47:27.537Z,1013.06
2023-03-29T07:48:27.468Z,1013.04
2023-03-29T07:49:27.478Z,1013.03
2023-03-29T07:50:27.478Z,1013.03
2023-03-29T07:51:27.464Z,1013.02
2023-03-29T07:52:27.425Z,1013.01
2023-03-29T07:53:27.426Z,1013.00
2023-03-29T07:54:27.412Z,1013.01
2023-03-29T07:55:27.410Z,1012.97
2023-03-29T07:56:27.411Z,1012.96
2023-03-29T07:57:27.498Z,1012.97
2023-03-29T07:58:27.362Z,1012.94
2023-03-29T07:59:27.385Z,1012.97
2023-03-29T08:00:27.454Z,1012.97
2023-03-29T08:01:27.354Z,1012.96
2023-03-29T08:02:27.475Z,1012.96
2023-03-29T08:03:27.401Z,1012.93
2023-03-29T08:04:27.346Z,1012.93
2023-03-29T08:05:40.224Z,1012.87
2023-03-29T08:06:27.332Z,1012.91
2023-03-29T08:07:27.269Z,1012.89
2023-03-29T08:08:27.284Z,1012.89
2023-03-29T08:09:27.269Z,1012.89
2023-03-29T08:10:27.263Z,1012.89
2023-03-29T08:11:27.248Z,1012.89
2023-03-29T08:12:27.275Z,1012.89
2023-03-29T08:13:27.409Z,1012.90
2023-03-29T08:14:27.251Z,1012.91
2023-03-29T08:15:27.361Z,1012.93
2023-03-29T08:16:27.275Z,1012.93
2023-03-29T08:17:27.264Z,1012.94
2023-03-29T08:18:27.200Z,1012.95
2023-03-29T08:19:27.192Z,1012.98
2023-03-29T08:20:27.186Z,1012.99
2023-03-29T08:21:27.152Z,1012.99
2023-03-29T08:22:27.125Z,1012.99
2023-03-29T08:23:27.131Z,1012.99
2023-03-29T08:24:27.106Z,1012.96
2023-03-29T08:25:27.120Z,1012.95
2023-03-29T08:26:27.094Z,1012.95
2023-03-29T08:27:27.139Z,1012.89
2023-03-29T08:28:27.060Z,1012.91
2023-03-29T08:29:27.066Z,1012.91
2023-03-29T08:30:27.056Z,1012.92
2023-03-29T08:31:27.081Z,1012.90
2023-03-29T08:32:27.070Z,1012.90
2023-03-29T08:33:27.047Z,1012.90
2023-03-29T08:34:27.001Z,1012.93
2023-03-29T08:35:26.992Z,1012.88
2023-03-29T08:36:26.992Z,1012.89
2023-03-29T08:37:26.972Z,1012.87
2023-03-29T08:38:26.949Z,1012.83
2023-03-29T08:39:26.935Z,1012.83
2023-03-29T08:40:26.978Z,1012.82
2023-03-29T08:41:26.930Z,1012.82
2023-03-29T08:42:26.914Z,1012.78
2023-03-29T08:43:26.919Z,1012.77
2023-03-29T08:44:26.904Z,1012.76
2023-03-29T08:45:26.912Z,1012.75
2023-03-29T08:46:34.231Z,1012.76
2023-03-29T08:47:26.941Z,1012.74
2023-03-29T08:48:26.864Z,1012.71
2023-03-29T08:49:26.831Z,1012.70
2023-03-29T08:50:26.834Z,1012.69
2023-03-29T08:51:26.844Z,1012.68
2023-03-29T08:52:26.815Z,1012.65
2023-03-29T08:53:26.804Z,1012.63
2023-03-29T08:54:26.802Z,1012.58
2023-03-29T08:55:26.810Z,1012.59
2023-03-29T08:56:26.853Z,1012.57
2023-03-29T08:57:26.869Z,1012.56
2023-03-29T08:58:26.734Z,1012.57
2023-03-29T08:59:26.735Z,1012.52
2023-03-29T09:00:26.811Z,1012.53
2023-03-29T09:01:26.784Z,1012.52
2023-03-29T09:02:26.733Z,1012.49
2023-03-29T09:03:26.737Z,1012.53
2023-03-29T09:04:26.671Z,1012.52
2023-03-29T09:05:26.744Z,1012.53
2023-03-29T09:06:26.668Z,1012.51
2023-03-29T09:07:26.737Z,1012.49
2023-03-29T09:08:26.635Z,1012.47
2023-03-29T09:09:26.635Z,1012.42
2023-03-29T09:10:26.653Z,1012.45
2023-03-29T09:11:26.612Z,1012.42
2023-03-29T09:12:26.583Z,1012.42
2023-03-29T09:13:26.638Z,1012.39
2023-03-29T09:14:26.569Z,1012.36
2023-03-29T09:15:26.578Z,1012.37
2023-03-29T09:16:26.598Z,1012.39
2023-03-29T09:17:26.640Z,1012.36
2023-03-29T09:18:26.545Z,1012.33
2023-03-29T09:19:26.525Z,1012.31
2023-03-29T09:20:26.525Z,1012.35
2023-03-29T09:21:26.511Z,1012.36
2023-03-29T09:22:26.478Z,1012.36
2023-03-29T09:23:26.472Z,1012.35
2023-03-29T09:24:26.454Z,1012.34
2023-03-29T09:25:26.504Z,1012.30
2023-03-29T09:26:26.447Z,1012.31
2023-03-29T09:27:26.429Z,1012.30
2023-03-29T09:28:26.410Z,1012.32
2023-03-29T09:29:26.407Z,1012.32
2023-03-29T09:30:26.431Z,1012.37
2023-03-29T09:31:26.471Z,1012.34
2023-03-29T09:32:26.421Z,1012.35
2023-03-29T09:33:26.366Z,1012.34
2023-03-29T09:34:26.391Z,1012.37
2023-03-29T09:35:26.343Z,1012.32
2023-03-29T09:36:26.360Z,1012.32
2023-03-29T09:37:26.324Z,1012.29
2023-03-29T09:38:26.312Z,1012.29
2023-03-29T09:39:26.297Z,1012.28
2023-03-29T09:40:26.296Z,1012.25
2023-03-29T09:41:26.294Z,1012.23
2023-03-29T09:42:26.272Z,1012.20
2023-03-29T09:43:26.255Z,1012.21
2023-03-29T09:44:31.287Z,1012.21
2023-03-29T09:45:26.286Z,1012.23
2023-03-29T09:46:26.243Z,1012.14
2023-03-29T09:47:26.245Z,1012.20
2023-03-29T09:48:26.197Z,1012.16
2023-03-29T09:49:26.211Z,1012.14
2023-03-29T09:50:31.505Z,1012.10
2023-03-29T09:51:26.303Z,1012.09
2023-03-29T09:52:26.193Z,1012.07
2023-03-29T09:53:26.148Z,1012.04
2023-03-29T09:54:26.135Z,1012.04
2023-03-29T09:55:26.150Z,1012.04
2023-03-29T09:56:26.127Z,1012.05
2023-03-29T09:57:26.241Z,1012.05
2023-03-29T09:58:26.096Z,1012.06
2023-03-29T09:59:26.139Z,1012.04
2023-03-29T10:00:26.119Z,1012.10
2023-03-29T10:01:26.201Z,1012.03
2023-03-29T10:02:26.106Z,1012.02
2023-03-29T10:03:26.054Z,1012.01
2023-03-29T10:04:26.168Z,1011.99
2023-03-29T10:05:26.087Z,1011.98
2023-03-29T10:06:26.021Z,1012.00
2023-03-29T10:07:27.843Z,1011.97
2023-03-29T10:08:26.008Z,1011.91
2023-03-29T10:09:26.040Z,1012.00
2023-03-29T10:10:26.018Z,1011.97
2023-03-29T10:11:26.120Z,1011.99
2023-03-29T10:12:26.528Z,1012.01
2023-03-29T10:13:25.963Z,1011.93
2023-03-29T10:14:25.945Z,1011.96
2023-03-29T10:15:29.640Z,1011.90
2023-03-29T10:16:26.016Z,1011.88
2023-03-29T10:17:26.037Z,1011.88
2023-03-29T10:18:25.918Z,1011.90
2023-03-29T10:19:25.947Z,1011.90
2023-03-29T10:20:25.870Z,1011.92
2023-03-29T10:21:25.965Z,1011.84
2023-03-29T10:22:25.863Z,1011.84
2023-03-29T10:23:25.837Z,1011.77
2023-03-29T10:24:25.814Z,1011.70
2023-03-29T10:25:25.817Z,1011.66
2023-03-29T10:26:25.796Z,1011.60
2023-03-29T10:27:25.779Z,1011.62
2023-03-29T10:28:25.798Z,1011.56
2023-03-29T10:29:25.826Z,1011.55
2023-03-29T10:30:25.833Z,1011.60
2023-03-29T10:31:25.821Z,1011.71
2023-03-29T10:32:25.809Z,1011.69
2023-03-29T10:33:25.717Z,1011.74
2023-03-29T10:34:25.732Z,1011.69
2023-03-29T10:35:25.727Z,1011.71
2023-03-29T10:36:25.693Z,1011.68
2023-03-29T10:37:25.870Z,1011.60
2023-03-29T10:38:25.660Z,1011.59
2023-03-29T10:39:25.900Z,1011.61
2023-03-29T10:40:25.822Z,1011.54
2023-03-29T10:41:25.787Z,1011.53
2023-03-29T10:42:25.647Z,1011.52
2023-03-29T10:43:25.641Z,1011.52
2023-03-29T10:44:25.590Z,1011.50
2023-03-29T10:45:25.609Z,1011.53
2023-03-29T10:46:25.661Z,1011.52
2023-03-29T10:47:25.666Z,1011.51
2023-03-29T10:48:25.571Z,1011.59
2023-03-29T10:49:25.553Z,1011.55
2023-03-29T10:50:25.573Z,1011.52
2023-03-29T10:51:25.560Z,1011.56
2023-03-29T10:52:25.591Z,1011.62
2023-03-29T10:53:25.542Z,1011.58
2023-03-29T10:54:25.531Z,1011.58
2023-03-29T10:55:25.485Z,1011.52
2023-03-29T10:56:25.518Z,1011.53
2023-03-29T10:57:25.516Z,1011.55
2023-03-29T10:58:25.485Z,1011.54
2023-03-29T10:59:25.494Z,1011.56
2023-03-29T11:00:25.462Z,1011.56
2023-03-29T11:01:25.509Z,1011.56
2023-03-29T11:02:25.482Z,1011.53
2023-03-29T11:03:25.505Z,1011.58
2023-03-29T11:04:25.404Z,1011.52
2023-03-29T11:05:25.392Z,1011.51
2023-03-29T11:06:25.403Z,1011.48
2023-03-29T11:07:25.390Z,1011.46
2023-03-29T11:08:25.368Z,1011.47
2023-03-29T11:09:25.339Z,1011.47
2023-03-29T11:10:25.346Z,1011.42
2023-03-29T11:11:25.326Z,1011.42
2023-03-29T11:12:25.307Z,1011.45
2023-03-29T11:13:25.326Z,1011.41
2023-03-29T11:14:25.293Z,1011.40
2023-03-29T11:15:25.350Z,1011.45
2023-03-29T11:16:25.456Z,1011.46
2023-03-29T11:17:25.482Z,1011.50
2023-03-29T11:18:25.247Z,1011.48
2023-03-29T11:19:25.280Z,1011.48
2023-03-29T11:20:25.212Z,1011.54
2023-03-29T11:21:25.325Z,1011.56
2023-03-29T11:22:25.338Z,1011.43
2023-03-29T11:23:25.235Z,1011.40
2023-03-29T11:24:25.218Z,1011.43
2023-03-29T11:25:26.601Z,1011.40
2023-03-29T11:26:25.351Z,1011.41
2023-03-29T11:27:25.220Z,1011.40
2023-03-29T11:28:25.174Z,1011.38
2023-03-29T11:29:25.180Z,1011.45
2023-03-29T11:30:25.147Z,1011.38
2023-03-29T11:31:25.346Z,1011.43
2023-03-29T11:32:25.121Z,1011.37
2023-03-29T11:33:25.099Z,1011.42
2023-03-29T11:34:25.125Z,1011.38
2023-03-29T11:35:25.085Z,1011.40
2023-03-29T11:36:25.107Z,1011.38
2023-03-29T11:37:25.041Z,1011.28
2023-03-29T11:38:25.057Z,1011.26
2023-03-29T11:39:25.116Z,1011.29
2023-03-29T11:40:25.057Z,1011.23
2023-03-29T11:41:25.016Z,1011.20
2023-03-29T11:42:24.976Z,1011.23
2023-03-29T11:43:25.013Z,1011.18
2023-03-29T11:44:25.077Z,1011.16
2023-03-29T11:45:24.948Z,1011.12
2023-03-29T11:46:25.042Z,1011.12
2023-03-29T11:47:25.044Z,1011.12
2023-03-29T11:48:24.960Z,1011.08
2023-03-29T11:49:24.929Z,1011.06
2023-03-29T11:50:24.928Z,1011.01
2023-03-29T11:51:24.927Z,1011.08
2023-03-29T11:52:24.918Z,1011.09
2023-03-29T11:53:24.949Z,1011.11
2023-03-29T11:54:24.883Z,1011.04
2023-03-29T11:55:24.859Z,1011.06
2023-03-29T11:56:24.869Z,1011.10
2023-03-29T11:57:25.012Z,1011.09
2023-03-29T11:58:25.291Z,1011.09
2023-03-29T11:59:24.849Z,1011.08
2023-03-29T12:00:24.832Z,1011.11
2023-03-29T12:01:24.884Z,1011.01
2023-03-29T12:02:24.883Z,1011.05
2023-03-29T12:03:24.934Z,1011.05
2023-03-29T12:04:24.958Z,1011.05
2023-03-29T12:05:24.781Z,1011.04